Date,TemperatureHighF,TemperatureAvgF,TemperatureLowF,DewpointHighF,DewpointAvgF,DewpointLowF,HumidityHigh,HumidityAvg,HumidityLow,PressureMaxIn,PressureMinIn,WindSpeedMaxMPH,WindSpeedAvgMPH,GustSpeedMaxMPH,PrecipitationSumIn
2013-2-1,32.0,27.3,21.0,17.0,11.4,7.0,64,51,38,30.34,29.81,3,2,12,0.01
2013-2-2,28.0,23.0,15.0,13.0,8.0,4.0,66,53,41,30.53,30.33,2,1,8,0.00
2013-2-3,28.0,23.9,18.0,22.0,19.4,12.0,94,83,55,30.34,30.01,1,0,3,0.00
2013-2-4,29.0,23.3,17.0,19.0,11.3,5.0,91,62,40,30.19,29.99,4,1,12,0.00
2013-2-5,29.0,22.1,15.0,20.0,10.8,6.0,83,62,47,30.32,30.19,2,0,5,0.00
2013-2-6,38.0,27.6,20.0,26.0,19.9,11.0,93,74,46,30.58,30.21,2,0,8,0.01
2013-2-7,28.0,20.6,13.0,12.0,1.3,-4.0,66,44,25,30.83,30.58,2,0,7,0.01
2013-2-8,23.0,19.2,16.0,17.0,14.5,3.0,93,84,41,30.80,29.98,3,1,12,0.00
2013-2-9,21.0,17.0,12.0,19.0,15.0,8.0,94,92,84,30.47,29.89,3,1,12,0.00
2013-2-10,37.0,19.7,6.0,11.0,6.1,1.0,84,59,26,30.68,30.47,1,0,3,0.01
2013-2-11,36.0,25.3,12.0,35.0,22.0,5.0,98,87,69,30.64,29.89,1,0,2,0.01
2013-2-12,39.0,34.6,31.0,32.0,30.7,29.0,98,87,73,30.13,29.86,2,0,3,0.21
2013-2-13,42.0,33.2,25.0,29.0,25.4,22.0,91,74,51,30.14,30.00,2,0,8,0.05
2013-2-14,43.0,33.1,26.0,26.0,24.2,21.0,91,71,47,30.27,29.98,2,0,6,0.01
2013-2-15,51.0,36.8,23.0,35.0,29.8,21.0,94,78,51,30.27,30.16,4,0,13,0.01
2013-2-16,40.0,33.9,28.0,33.0,27.6,19.0,96,78,60,30.23,30.01,2,0,6,0.01
2013-2-17,30.0,21.6,16.0,19.0,12.1,3.0,92,68,48,30.01,29.64,5,2,20,0.01
2013-2-18,31.0,21.4,13.0,5.0,2.5,-1.0,62,45,27,30.42,29.93,6,2,22,0.00
2013-2-19,45.0,33.4,20.0,40.0,21.6,5.0,97,64,44,30.44,29.84,2,0,8,0.31
2013-2-20,39.0,32.5,26.0,38.0,23.4,15.0,98,71,51,30.03,29.79,5,1,12,0.29
2013-2-21,30.0,25.5,22.0,17.0,14.7,11.0,77,63,52,30.46,30.02,3,1,13,0.01
2013-2-22,40.0,29.5,18.0,26.0,21.0,15.0,91,72,45,30.68,30.45,4,0,9,0.00
2013-2-23,38.0,33.3,29.0,33.0,29.5,25.0,96,86,76,30.63,30.23,2,0,10,0.00
2013-2-24,36.0,33.0,30.0,35.0,32.0,29.0,98,97,96,30.23,29.99,2,0,7,0.26
2013-2-25,40.0,32.9,28.0,33.0,30.4,27.0,98,91,69,30.52,30.18,1,0,3,0.20
2013-2-26,43.0,33.8,27.0,36.0,30.4,26.0,98,88,70,30.63,30.47,2,0,6,0.06
2013-2-27,40.0,37.1,31.0,39.0,35.6,29.0,98,94,80,30.47,29.85,6,2,15,1.15
2013-2-28,48.0,38.0,33.0,37.0,34.5,32.0,98,88,65,29.91,29.79,2,0,3,0.24